createdAt,value
2022-11-01T00:00:01.140Z,1015.57
2022-11-01T00:01:01.280Z,1015.54
2022-11-01T00:02:01.152Z,1015.52
2022-11-01T00:03:01.059Z,1015.53
2022-11-01T00:04:01.069Z,1015.52
2022-11-01T00:05:01.075Z,1015.49
2022-11-01T00:06:01.777Z,1015.5
2022-11-01T00:07:01.812Z,1015.5
2022-11-01T00:08:02.044Z,1015.55
2022-11-01T00:09:01.778Z,1015.5
2022-11-01T00:10:02.785Z,1015.52
2022-11-01T00:11:01.782Z,1015.47
2022-11-01T00:12:01.129Z,1015.52
2022-11-01T00:13:02.056Z,1015.5
2022-11-01T00:14:01.429Z,1015.51
2022-11-01T00:15:01.137Z,1015.49
2022-11-01T00:16:01.149Z,1015.46
2022-11-01T00:17:01.541Z,1015.47
2022-11-01T00:18:01.252Z,1015.43
2022-11-01T00:19:02.776Z,1015.46
2022-11-01T00:20:01.084Z,1015.46
2022-11-01T00:21:01.080Z,1015.46
2022-11-01T00:22:01.183Z,1015.45
2022-11-01T00:23:01.930Z,1015.44
2022-11-01T00:24:01.099Z,1015.4
2022-11-01T00:25:01.105Z,1015.4
2022-11-01T00:26:01.108Z,1015.34
2022-11-01T00:27:01.181Z,1015.32
2022-11-01T00:28:01.782Z,1015.35
2022-11-01T00:29:01.040Z,1015.32
2022-11-01T00:30:01.247Z,1015.29
2022-11-01T00:31:01.325Z,1015.3
2022-11-01T00:32:01.174Z,1015.24
2022-11-01T00:33:01.150Z,1015.26
2022-11-01T00:34:03.906Z,1015.24
2022-11-01T00:35:01.067Z,1015.23
2022-11-01T00:36:01.076Z,1015.19
2022-11-01T00:37:00.761Z,1015.2
2022-11-01T00:38:00.841Z,1015.21
2022-11-01T00:39:01.383Z,1015.25
2022-11-01T00:40:01.044Z,1015.18
2022-11-01T00:41:01.442Z,1015.16
2022-11-01T00:42:01.097Z,1015.12
2022-11-01T00:43:01.115Z,1015.12
2022-11-01T00:44:01.133Z,1015.1
2022-11-01T00:45:01.119Z,1015.14
2022-11-01T00:46:01.140Z,1015.11
2022-11-01T00:47:01.927Z,1015.05
2022-11-01T00:48:01.413Z,1015.09
2022-11-01T00:49:01.040Z,1015.08
2022-11-01T00:50:01.777Z,1015.09
2022-11-01T00:51:01.082Z,1015.14
2022-11-01T00:52:01.074Z,1015.11
2022-11-01T00:53:00.788Z,1015.14
2022-11-01T00:54:00.463Z,1015.19
2022-11-01T00:55:00.061Z,1015.16
2022-11-01T00:56:00.740Z,1015.14
2022-11-01T00:57:00.741Z,1015.14
2022-11-01T00:58:01.110Z,1015.14
2022-11-01T00:59:01.410Z,1015.13
2022-11-01T01:00:01.514Z,1015.05
2022-11-01T01:01:02.739Z,1015.11
2022-11-01T01:02:01.291Z,1015.01
2022-11-01T01:03:01.426Z,1015.05
2022-11-01T01:04:04.022Z,1015.03
2022-11-01T01:05:01.344Z,1015.11
2022-11-01T01:06:04.876Z,1015.07
2022-11-01T01:07:01.064Z,1015.07
2022-11-01T01:08:01.100Z,1015.09
2022-11-01T01:09:01.453Z,1015.1
2022-11-01T01:10:01.080Z,1015.01
2022-11-01T01:11:08.418Z,1014.97
2022-11-01T01:12:01.090Z,1014.98
2022-11-01T01:13:01.586Z,1014.95
2022-11-01T01:14:02.792Z,1014.91
2022-11-01T01:15:01.790Z,1014.9
2022-11-01T01:16:10.563Z,1014.81
2022-11-01T01:17:01.181Z,1014.79
2022-11-01T01:18:01.945Z,1014.8
2022-11-01T01:19:01.170Z,1014.74
2022-11-01T01:20:01.090Z,1014.77
2022-11-01T01:21:13.534Z,1014.76
2022-11-01T01:22:01.099Z,1014.74
2022-11-01T01:23:01.795Z,1014.69
2022-11-01T01:24:01.100Z,1014.69
2022-11-01T01:25:01.093Z,1014.71
2022-11-01T01:26:15.894Z,1014.72
2022-11-01T01:27:02.047Z,1014.75
2022-11-01T01:28:01.484Z,1014.72
2022-11-01T01:29:01.117Z,1014.73
2022-11-01T01:30:01.107Z,1014.7
2022-11-01T01:31:01.137Z,1014.73
2022-11-01T01:32:01.126Z,1014.72
2022-11-01T01:33:01.194Z,1014.71
2022-11-01T01:34:01.056Z,1014.72
2022-11-01T01:35:01.142Z,1014.65
2022-11-01T01:36:01.166Z,1014.67
2022-11-01T01:37:04.229Z,1014.64
2022-11-01T01:38:01.361Z,1014.69
2022-11-01T01:39:01.087Z,1014.68
2022-11-01T01:40:01.086Z,1014.68
2022-11-01T01:41:01.071Z,1014.68
2022-11-01T01:42:01.080Z,1014.65
2022-11-01T01:43:01.086Z,1014.69
2022-11-01T01:44:01.229Z,1014.66
2022-11-01T01:45:01.249Z,1014.64
2022-11-01T01:46:01.263Z,1014.63
2022-11-01T01:47:01.118Z,1014.56
2022-11-01T01:48:01.549Z,1014.6
2022-11-01T01:49:01.047Z,1014.56
2022-11-01T01:50:01.143Z,1014.6
2022-11-01T01:51:01.164Z,1014.57
2022-11-01T01:52:01.166Z,1014.59
2022-11-01T01:53:02.223Z,1014.58
2022-11-01T01:54:02.335Z,1014.63
2022-11-01T01:55:01.081Z,1014.66
2022-11-01T01:56:01.093Z,1014.64
2022-11-01T01:57:01.466Z,1014.6
2022-11-01T01:58:01.475Z,1014.59
2022-11-01T01:59:01.135Z,1014.58
2022-11-01T02:00:01.844Z,1014.53
2022-11-01T02:01:01.172Z,1014.5
2022-11-01T02:02:02.187Z,1014.5
2022-11-01T02:03:01.595Z,1014.49
2022-11-01T02:04:01.322Z,1014.45
2022-11-01T02:05:01.448Z,1014.44
2022-11-01T02:06:01.499Z,1014.4
2022-11-01T02:07:01.141Z,1014.39
2022-11-01T02:08:01.596Z,1014.41
2022-11-01T02:09:01.167Z,1014.43
2022-11-01T02:10:01.068Z,1014.33
2022-11-01T02:11:01.055Z,1014.35
2022-11-01T02:12:01.434Z,1014.31
2022-11-01T02:13:01.437Z,1014.3
2022-11-01T02:14:00.650Z,1014.25
2022-11-01T02:15:00.450Z,1014.28
2022-11-01T02:16:00.189Z,1014.17
2022-11-01T02:16:59.867Z,1014.2
2022-11-01T02:18:02.143Z,1014.16
2022-11-01T02:19:01.120Z,1014.17
2022-11-01T02:20:01.135Z,1014.18
2022-11-01T02:21:01.143Z,1014.12
2022-11-01T02:22:01.335Z,1014.13
2022-11-01T02:23:02.637Z,1014.08
2022-11-01T02:24:01.053Z,1014.06
2022-11-01T02:25:01.055Z,1014.05
2022-11-01T02:26:01.058Z,1014.05
2022-11-01T02:26:59.741Z,1014.03
2022-11-01T02:28:01.454Z,1014
2022-11-01T02:29:04.791Z,1013.99
2022-11-01T02:30:02.122Z,1013.98
2022-11-01T02:31:01.198Z,1014.01
2022-11-01T02:32:01.104Z,1013.95
2022-11-01T02:33:01.623Z,1013.98
2022-11-01T02:34:01.144Z,1013.99
2022-11-01T02:35:01.929Z,1014.01
2022-11-01T02:36:01.466Z,1013.97
2022-11-01T02:37:02.167Z,1013.99
2022-11-01T02:38:02.159Z,1013.99
2022-11-01T02:39:01.191Z,1014
2022-11-01T02:40:01.157Z,1014.02
2022-11-01T02:41:01.787Z,1014
2022-11-01T02:42:01.367Z,1014.01
2022-11-01T02:43:01.572Z,1014.03
2022-11-01T02:44:01.938Z,1014.01
2022-11-01T02:45:01.074Z,1014.02
2022-11-01T02:46:01.078Z,1014
2022-11-01T02:47:00.989Z,1014.03
2022-11-01T02:48:01.127Z,1014.07
2022-11-01T02:49:01.118Z,1014.1
2022-11-01T02:50:01.341Z,1014.06
2022-11-01T02:51:01.078Z,1014.06
2022-11-01T02:52:03.412Z,1014.02
2022-11-01T02:53:01.124Z,1013.99
2022-11-01T02:54:01.392Z,1014.05
2022-11-01T02:55:02.056Z,1014.03
2022-11-01T02:56:02.063Z,1014.02
2022-11-01T02:57:05.534Z,1014.04
2022-11-01T02:58:01.639Z,1014.01
2022-11-01T02:59:01.117Z,1014.04
2022-11-01T03:00:01.082Z,1014.08
2022-11-01T03:01:01.130Z,1014.1
2022-11-01T03:02:09.331Z,1014.13
2022-11-01T03:03:01.097Z,1014.09
2022-11-01T03:04:01.100Z,1014.1
2022-11-01T03:05:01.254Z,1014.08
2022-11-01T03:06:01.115Z,1014.01
2022-11-01T03:07:11.293Z,1014.01
2022-11-01T03:08:01.599Z,1014.06
2022-11-01T03:09:01.131Z,1014.04
2022-11-01T03:10:01.144Z,1014.02
2022-11-01T03:11:01.138Z,1014.1
2022-11-01T03:12:13.988Z,1014.09
2022-11-01T03:13:01.468Z,1014.11
2022-11-01T03:14:01.086Z,1014.12
2022-11-01T03:15:01.156Z,1014.15
2022-11-01T03:16:01.193Z,1014.05
2022-11-01T03:17:17.230Z,1014.09
2022-11-01T03:18:03.113Z,1014.15
2022-11-01T03:19:01.227Z,1014.14
2022-11-01T03:20:01.131Z,1014.14
2022-11-01T03:21:01.128Z,1014.16
2022-11-01T03:22:01.221Z,1014.1
2022-11-01T03:23:01.628Z,1014.14
2022-11-01T03:24:01.044Z,1014.08
2022-11-01T03:25:01.534Z,1014.08
2022-11-01T03:26:01.538Z,1014.11
2022-11-01T03:27:01.268Z,1014.14
2022-11-01T03:28:01.230Z,1014.1
2022-11-01T03:29:01.894Z,1014.1
2022-11-01T03:30:01.106Z,1014.13
2022-11-01T03:31:01.089Z,1014.11
2022-11-01T03:32:01.227Z,1014.08
2022-11-01T03:33:01.539Z,1014.07
2022-11-01T03:34:02.847Z,1014.1
2022-11-01T03:35:01.919Z,1014.12
2022-11-01T03:36:01.774Z,1014.07
2022-11-01T03:37:01.105Z,1014.12
2022-11-01T03:38:01.154Z,1014.08
2022-11-01T03:39:01.147Z,1014.09
2022-11-01T03:40:01.494Z,1014.06
2022-11-01T03:41:01.489Z,1014.05
2022-11-01T03:42:02.152Z,1014.01
2022-11-01T03:43:01.347Z,1014.08
2022-11-01T03:44:00.852Z,1014.12
2022-11-01T03:45:00.454Z,1014.17
2022-11-01T03:46:00.033Z,1014.13
2022-11-01T03:46:59.593Z,1014.14
2022-11-01T03:48:02.027Z,1014.18
2022-11-01T03:49:01.458Z,1014.16
2022-11-01T03:50:02.263Z,1014.17
2022-11-01T03:51:01.067Z,1014.15
2022-11-01T03:52:01.062Z,1014.14
2022-11-01T03:53:01.447Z,1014.13
2022-11-01T03:54:02.348Z,1014.11
2022-11-01T03:55:01.054Z,1014.17
2022-11-01T03:56:01.145Z,1014.11
2022-11-01T03:57:02.456Z,1014.16
2022-11-01T03:58:01.564Z,1014.17
2022-11-01T03:59:01.265Z,1014.17
2022-11-01T04:00:01.561Z,1014.16
2022-11-01T04:01:02.141Z,1014.14
2022-11-01T04:02:02.834Z,1014.11
2022-11-01T04:03:01.624Z,1014.16
2022-11-01T04:04:01.081Z,1014.15
2022-11-01T04:05:01.081Z,1014.16
2022-11-01T04:06:01.094Z,1014.18
2022-11-01T04:07:01.092Z,1014.2
2022-11-01T04:08:02.122Z,1014.18
2022-11-01T04:09:02.118Z,1014.2
2022-11-01T04:10:02.138Z,1014.2
2022-11-01T04:11:01.143Z,1014.22
2022-11-01T04:12:01.126Z,1014.21
2022-11-01T04:13:01.570Z,1014.19
2022-11-01T04:14:01.331Z,1014.21
2022-11-01T04:15:01.540Z,1014.19
2022-11-01T04:16:01.165Z,1014.19
2022-11-01T04:17:01.093Z,1014.19
2022-11-01T04:18:01.506Z,1014.21
2022-11-01T04:19:01.065Z,1014.21
2022-11-01T04:20:01.088Z,1014.17
2022-11-01T04:21:01.095Z,1014.21
2022-11-01T04:22:01.092Z,1014.21
2022-11-01T04:23:01.585Z,1014.23
2022-11-01T04:24:01.116Z,1014.22
2022-11-01T04:25:00.710Z,1014.16
2022-11-01T04:26:00.271Z,1014.2
2022-11-01T04:27:00.387Z,1014.23
2022-11-01T04:28:00.102Z,1014.22
2022-11-01T04:28:59.716Z,1014.24
2022-11-01T04:30:01.728Z,1014.32
2022-11-01T04:31:01.715Z,1014.36
2022-11-01T04:32:01.062Z,1014.37
2022-11-01T04:33:01.437Z,1014.32
2022-11-01T04:34:01.380Z,1014.31
2022-11-01T04:35:01.204Z,1014.32
2022-11-01T04:36:01.177Z,1014.24
2022-11-01T04:37:01.448Z,1014.15
2022-11-01T04:38:02.215Z,1014.13
2022-11-01T04:39:01.127Z,1014.05
2022-11-01T04:40:02.835Z,1014.08
2022-11-01T04:41:01.518Z,1014.03
2022-11-01T04:42:01.154Z,1014.04
2022-11-01T04:43:04.966Z,1014.05
2022-11-01T04:44:01.876Z,1014.05
2022-11-01T04:45:01.946Z,1014.07
2022-11-01T04:46:01.267Z,1014.08
2022-11-01T04:47:01.159Z,1014.06
2022-11-01T04:48:09.142Z,1014.07
2022-11-01T04:49:01.053Z,1014.16
2022-11-01T04:50:01.790Z,1014.17
2022-11-01T04:51:01.423Z,1014.23
2022-11-01T04:52:01.429Z,1014.25
2022-11-01T04:53:12.656Z,1014.29
2022-11-01T04:54:01.074Z,1014.29
2022-11-01T04:55:01.073Z,1014.33
2022-11-01T04:56:01.120Z,1014.34
2022-11-01T04:57:01.135Z,1014.35
2022-11-01T04:58:14.841Z,1014.33
2022-11-01T04:59:01.116Z,1014.26
2022-11-01T05:00:01.147Z,1014.3
2022-11-01T05:01:02.126Z,1014.21
2022-11-01T05:02:01.309Z,1014.25
2022-11-01T05:03:16.764Z,1014.23
2022-11-01T05:04:01.951Z,1014.25
2022-11-01T05:05:01.485Z,1014.24
2022-11-01T05:06:01.074Z,1014.25
2022-11-01T05:07:00.758Z,1014.28
2022-11-01T05:09:00.062Z,1014.23
2022-11-01T05:09:59.779Z,1014.23
2022-11-01T05:11:01.485Z,1014.29
2022-11-01T05:12:01.182Z,1014.34
2022-11-01T05:13:02.214Z,1014.34
2022-11-01T05:14:00.421Z,1014.34
2022-11-01T05:14:59.991Z,1014.32
2022-11-01T05:16:18.285Z,1014.27
2022-11-01T05:17:01.136Z,1014.26
2022-11-01T05:18:01.151Z,1014.29
2022-11-01T05:19:01.256Z,1014.23
2022-11-01T05:20:01.393Z,1014.23
2022-11-01T05:21:01.409Z,1014.24
2022-11-01T05:22:01.455Z,1014.24
2022-11-01T05:23:02.056Z,1014.23
2022-11-01T05:24:01.071Z,1014.27
2022-11-01T05:25:01.110Z,1014.26
2022-11-01T05:26:01.103Z,1014.24
2022-11-01T05:27:01.099Z,1014.2
2022-11-01T05:28:01.709Z,1014.18
2022-11-01T05:29:08.866Z,1014.17
2022-11-01T05:30:01.393Z,1014.17
2022-11-01T05:31:01.520Z,1014.2
2022-11-01T05:32:02.223Z,1014.15
2022-11-01T05:33:04.689Z,1014.15
2022-11-01T05:34:01.065Z,1014.15
2022-11-01T05:35:01.097Z,1014.13
2022-11-01T05:36:01.063Z,1014.08
2022-11-01T05:37:01.086Z,1014.08
2022-11-01T05:38:02.103Z,1014.07
2022-11-01T05:39:01.136Z,1014.13
2022-11-01T05:40:01.661Z,1014.13
2022-11-01T05:41:01.169Z,1014.17
2022-11-01T05:42:02.951Z,1014.21
2022-11-01T05:43:01.486Z,1014.2
2022-11-01T05:44:01.913Z,1014.28
2022-11-01T05:45:01.426Z,1014.28
2022-11-01T05:46:01.414Z,1014.28
2022-11-01T05:47:01.192Z,1014.3
2022-11-01T05:48:01.144Z,1014.3
2022-11-01T05:49:01.776Z,1014.36
2022-11-01T05:50:02.223Z,1014.41
2022-11-01T05:51:01.458Z,1014.38
2022-11-01T05:52:01.077Z,1014.3
2022-11-01T05:53:01.415Z,1014.3
2022-11-01T05:54:01.733Z,1014.2
2022-11-01T05:55:01.807Z,1014.17
2022-11-01T05:56:01.433Z,1014.17
2022-11-01T05:57:02.110Z,1014.22
2022-11-01T05:58:01.198Z,1014.21
2022-11-01T05:59:00.700Z,1014.26
2022-11-01T06:00:00.308Z,1014.28
2022-11-01T06:01:00.119Z,1014.27
2022-11-01T06:01:59.903Z,1014.25
2022-11-01T06:03:00.016Z,1014.25
2022-11-01T06:03:59.882Z,1014.2
2022-11-01T06:05:02.807Z,1014.2
2022-11-01T06:06:01.300Z,1014.24
2022-11-01T06:07:01.532Z,1014.36
2022-11-01T06:08:01.054Z,1014.43
2022-11-01T06:09:01.062Z,1014.47
2022-11-01T06:10:01.084Z,1014.52
2022-11-01T06:11:01.055Z,1014.55
2022-11-01T06:12:00.779Z,1014.5
2022-11-01T06:13:00.859Z,1014.5
2022-11-01T06:14:01.085Z,1014.45
2022-11-01T06:15:01.128Z,1014.42
2022-11-01T06:16:01.076Z,1014.45
2022-11-01T06:17:01.354Z,1014.4
2022-11-01T06:18:01.997Z,1014.41
2022-11-01T06:19:02.311Z,1014.4
2022-11-01T06:20:01.143Z,1014.38
2022-11-01T06:21:01.143Z,1014.35
2022-11-01T06:22:00.638Z,1014.37
2022-11-01T06:23:00.229Z,1014.38
2022-11-01T06:24:05.683Z,1014.38
2022-11-01T06:25:01.943Z,1014.38
2022-11-01T06:26:01.995Z,1014.39
2022-11-01T06:27:01.200Z,1014.4
2022-11-01T06:28:01.462Z,1014.36
2022-11-01T06:29:08.109Z,1014.36
2022-11-01T06:30:01.805Z,1014.41
2022-11-01T06:31:01.535Z,1014.42
2022-11-01T06:32:00.989Z,1014.45
2022-11-01T06:33:01.882Z,1014.46
2022-11-01T06:34:08.125Z,1014.46
2022-11-01T06:35:01.938Z,1014.46
2022-11-01T06:36:01.132Z,1014.49
2022-11-01T06:37:01.139Z,1014.55
2022-11-01T06:38:01.165Z,1014.53
2022-11-01T06:39:11.663Z,1014.53
2022-11-01T06:40:03.863Z,1014.55
2022-11-01T06:41:01.279Z,1014.53
2022-11-01T06:42:01.099Z,1014.45
2022-11-01T06:43:01.672Z,1014.47
2022-11-01T06:44:15.186Z,1014.48
2022-11-01T06:45:00.997Z,1014.47
2022-11-01T06:46:01.472Z,1014.46
2022-11-01T06:47:01.099Z,1014.44
2022-11-01T06:48:01.350Z,1014.45
2022-11-01T06:49:00.836Z,1014.49
2022-11-01T06:50:00.625Z,1014.46
2022-11-01T06:51:00.355Z,1014.51
2022-11-01T06:52:02.267Z,1014.52
2022-11-01T06:53:02.019Z,1014.48
2022-11-01T06:54:01.270Z,1014.46
2022-11-01T06:55:05.297Z,1014.5
2022-11-01T06:56:01.758Z,1014.51
2022-11-01T06:57:01.182Z,1014.44
2022-11-01T06:58:01.642Z,1014.43
2022-11-01T06:59:02.312Z,1014.38
2022-11-01T07:00:01.037Z,1014.33
2022-11-01T07:01:01.184Z,1014.36
2022-11-01T07:02:02.234Z,1014.38
2022-11-01T07:03:01.304Z,1014.37
2022-11-01T07:04:01.821Z,1014.37
2022-11-01T07:05:02.342Z,1014.36
2022-11-01T07:06:00.607Z,1014.41
2022-11-01T07:07:00.192Z,1014.38
2022-11-01T07:08:00.049Z,1014.41
2022-11-01T07:08:59.912Z,1014.4
2022-11-01T07:09:59.499Z,1014.43
2022-11-01T07:11:02.299Z,1014.43
2022-11-01T07:12:00.965Z,1014.41
2022-11-01T07:13:01.086Z,1014.49
2022-11-01T07:14:01.074Z,1014.53
2022-11-01T07:15:01.073Z,1014.5
2022-11-01T07:16:01.312Z,1014.54
2022-11-01T07:17:01.308Z,1014.55
2022-11-01T07:18:01.454Z,1014.6
2022-11-01T07:19:01.264Z,1014.61
2022-11-01T07:20:02.168Z,1014.63
2022-11-01T07:21:04.015Z,1014.64
2022-11-01T07:22:01.046Z,1014.64
2022-11-01T07:23:01.378Z,1014.63
2022-11-01T07:24:01.252Z,1014.64
2022-11-01T07:25:01.459Z,1014.73
2022-11-01T07:26:01.167Z,1014.75
2022-11-01T07:27:01.160Z,1014.75
2022-11-01T07:28:01.043Z,1014.75
2022-11-01T07:29:01.244Z,1014.8
2022-11-01T07:30:01.384Z,1014.83
2022-11-01T07:31:01.224Z,1014.82
2022-11-01T07:32:00.981Z,1014.82
2022-11-01T07:33:01.683Z,1014.86
2022-11-01T07:34:02.224Z,1014.85
2022-11-01T07:35:01.140Z,1014.86
2022-11-01T07:36:01.149Z,1014.91
2022-11-01T07:37:00.645Z,1014.86
2022-11-01T07:38:01.258Z,1014.86
2022-11-01T07:39:01.339Z,1014.81
2022-11-01T07:40:01.203Z,1014.86
2022-11-01T07:41:01.942Z,1014.9
2022-11-01T07:42:01.719Z,1014.91
2022-11-01T07:43:01.164Z,1014.94
2022-11-01T07:44:01.972Z,1014.99
2022-11-01T07:45:01.871Z,1014.98
2022-11-01T07:46:01.479Z,1014.98
2022-11-01T07:47:01.877Z,1014.9
2022-11-01T07:48:01.625Z,1014.9
2022-11-01T07:49:00.468Z,1014.92
2022-11-01T07:50:00.059Z,1014.93
2022-11-01T07:51:00.260Z,1015.01
2022-11-01T07:52:02.832Z,1014.94
2022-11-01T07:53:01.172Z,1014.93
2022-11-01T07:55:00.910Z,1014.93
2022-11-01T07:56:01.528Z,1014.93
2022-11-01T07:57:01.145Z,1014.94
2022-11-01T07:58:01.480Z,1014.89
2022-11-01T07:59:01.466Z,1014.89
2022-11-01T08:00:04.575Z,1014.88
2022-11-01T08:01:01.148Z,1014.87
2022-11-01T08:02:05.332Z,1014.91
2022-11-01T08:03:02.232Z,1014.95
2022-11-01T08:04:01.098Z,1014.97
2022-11-01T08:05:06.609Z,1015.06
2022-11-01T08:06:02.222Z,1015.08
2022-11-01T08:07:01.207Z,1015.09
2022-11-01T08:08:01.967Z,1015.04
2022-11-01T08:09:04.318Z,1015.02
2022-11-01T08:10:09.731Z,1015.06
2022-11-01T08:11:02.559Z,1015.09
2022-11-01T08:12:00.825Z,1015.06
2022-11-01T08:13:01.310Z,1015.04
2022-11-01T08:14:04.349Z,1015.08
2022-11-01T08:15:13.362Z,1015.19
2022-11-01T08:16:01.122Z,1015.16
2022-11-01T08:17:01.061Z,1015.19
2022-11-01T08:18:01.498Z,1015.15
2022-11-01T08:19:01.088Z,1015.19
2022-11-01T08:20:15.639Z,1015.24
2022-11-01T08:21:01.463Z,1015.27
2022-11-01T08:22:01.488Z,1015.24
2022-11-01T08:23:01.529Z,1015.28
2022-11-01T08:24:01.167Z,1015.28
2022-11-01T08:25:01.261Z,1015.34
2022-11-01T08:26:01.941Z,1015.32
2022-11-01T08:27:01.123Z,1015.3
2022-11-01T08:28:01.145Z,1015.31
2022-11-01T08:29:01.143Z,1015.33
2022-11-01T08:30:01.155Z,1015.37
2022-11-01T08:31:01.197Z,1015.4
2022-11-01T08:32:01.067Z,1015.41
2022-11-01T08:33:01.588Z,1015.35
2022-11-01T08:34:02.700Z,1015.33
2022-11-01T08:35:01.270Z,1015.43
2022-11-01T08:36:01.411Z,1015.41
2022-11-01T08:37:01.073Z,1015.41
2022-11-01T08:38:00.818Z,1015.39
2022-11-01T08:39:01.192Z,1015.36
2022-11-01T08:40:02.048Z,1015.3
2022-11-01T08:41:03.237Z,1015.32
2022-11-01T08:42:01.125Z,1015.32
2022-11-01T08:43:01.607Z,1015.29
2022-11-01T08:44:01.163Z,1015.27
2022-11-01T08:45:01.865Z,1015.25
2022-11-01T08:46:02.081Z,1015.3
2022-11-01T08:47:01.151Z,1015.29
2022-11-01T08:48:01.166Z,1015.37
2022-11-01T08:49:01.203Z,1015.39
2022-11-01T08:50:01.080Z,1015.37
2022-11-01T08:51:01.886Z,1015.31
2022-11-01T08:52:04.661Z,1015.26
2022-11-01T08:53:01.506Z,1015.28
2022-11-01T08:54:01.107Z,1015.29
2022-11-01T08:55:01.098Z,1015.25
2022-11-01T08:56:01.058Z,1015.2
2022-11-01T08:57:01.038Z,1015.19
2022-11-01T08:58:01.196Z,1015.27
2022-11-01T08:59:01.074Z,1015.31
2022-11-01T09:00:01.137Z,1015.32
2022-11-01T09:01:01.325Z,1015.31
2022-11-01T09:02:01.364Z,1015.37
2022-11-01T09:03:01.935Z,1015.39
2022-11-01T09:04:01.099Z,1015.29
2022-11-01T09:05:01.069Z,1015.19
2022-11-01T09:06:01.328Z,1015.26
2022-11-01T09:07:01.895Z,1015.25
2022-11-01T09:08:01.775Z,1015.21
2022-11-01T09:09:01.092Z,1015.24
2022-11-01T09:10:01.107Z,1015.25
2022-11-01T09:11:01.482Z,1015.19
2022-11-01T09:12:12.352Z,1015.16
2022-11-01T09:13:02.208Z,1015.18
2022-11-01T09:14:01.369Z,1015.12
2022-11-01T09:15:02.594Z,1015.15
2022-11-01T09:16:02.324Z,1015.2
2022-11-01T09:17:01.147Z,1015.23
2022-11-01T09:18:01.168Z,1015.24
2022-11-01T09:19:01.109Z,1015.11
2022-11-01T09:20:01.139Z,1015.16
2022-11-01T09:21:01.072Z,1015.19
2022-11-01T09:22:01.079Z,1015.28
2022-11-01T09:23:01.491Z,1015.25
2022-11-01T09:24:01.399Z,1015.17
2022-11-01T09:25:01.098Z,1015.2
2022-11-01T09:26:01.322Z,1015.25
2022-11-01T09:27:01.389Z,1015.19
2022-11-01T09:28:01.418Z,1015.23
2022-11-01T09:29:02.281Z,1015.21
2022-11-01T09:30:01.841Z,1015.24
2022-11-01T09:31:15.471Z,1015.28
2022-11-01T09:32:01.152Z,1015.22
2022-11-01T09:33:01.323Z,1015.29
2022-11-01T09:34:01.064Z,1015.28
2022-11-01T09:35:01.049Z,1015.32
2022-11-01T09:36:01.204Z,1015.39
2022-11-01T09:37:01.064Z,1015.41
2022-11-01T09:38:01.253Z,1015.41
2022-11-01T09:39:01.095Z,1015.48
2022-11-01T09:40:01.094Z,1015.42
2022-11-01T09:41:01.790Z,1015.5
2022-11-01T09:42:04.126Z,1015.47
2022-11-01T09:43:02.107Z,1015.5
2022-11-01T09:44:01.106Z,1015.5
2022-11-01T09:45:01.040Z,1015.46
2022-11-01T09:46:01.137Z,1015.49
2022-11-01T09:47:02.741Z,1015.51
2022-11-01T09:48:01.620Z,1015.53
2022-11-01T09:49:01.161Z,1015.51
2022-11-01T09:50:01.161Z,1015.52
2022-11-01T09:51:03.358Z,1015.53
2022-11-01T09:52:03.458Z,1015.54
2022-11-01T09:53:01.072Z,1015.55
2022-11-01T09:54:01.073Z,1015.5
2022-11-01T09:55:01.393Z,1015.55
2022-11-01T09:56:04.808Z,1015.5
2022-11-01T09:57:01.465Z,1015.5
2022-11-01T09:58:02.569Z,1015.48
2022-11-01T09:59:02.381Z,1015.51
2022-11-01T10:00:02.425Z,1015.48
2022-11-01T10:01:09.292Z,1015.5
2022-11-01T10:02:09.682Z,1015.46
2022-11-01T10:03:01.400Z,1015.43
2022-11-01T10:04:01.202Z,1015.47
2022-11-01T10:05:01.162Z,1015.48
2022-11-01T10:06:10.866Z,1015.44
2022-11-01T10:07:04.039Z,1015.45
2022-11-01T10:08:01.968Z,1015.5
2022-11-01T10:09:01.054Z,1015.51
2022-11-01T10:10:01.243Z,1015.53
2022-11-01T10:11:14.935Z,1015.64
2022-11-01T10:12:01.824Z,1015.62
2022-11-01T10:13:01.150Z,1015.59
2022-11-01T10:14:00.985Z,1015.55
2022-11-01T10:15:01.104Z,1015.65
2022-11-01T10:16:16.745Z,1015.63
2022-11-01T10:17:03.863Z,1015.68
2022-11-01T10:18:01.141Z,1015.64
2022-11-01T10:19:01.078Z,1015.71
2022-11-01T10:20:01.187Z,1015.69
2022-11-01T10:21:01.058Z,1015.69
2022-11-01T10:22:01.120Z,1015.69
2022-11-01T10:23:01.506Z,1015.62
2022-11-01T10:24:01.376Z,1015.58
2022-11-01T10:25:01.864Z,1015.56
2022-11-01T10:26:01.147Z,1015.55
2022-11-01T10:27:01.098Z,1015.54
2022-11-01T10:28:01.114Z,1015.51
2022-11-01T10:29:01.065Z,1015.53
2022-11-01T10:30:01.172Z,1015.51
2022-11-01T10:31:01.117Z,1015.55
2022-11-01T10:32:01.521Z,1015.55
2022-11-01T10:33:01.706Z,1015.53
2022-11-01T10:34:00.944Z,1015.55
2022-11-01T10:35:01.139Z,1015.57
2022-11-01T10:36:01.145Z,1015.63
2022-11-01T10:37:01.469Z,1015.66
2022-11-01T10:38:22.834Z,1015.68
2022-11-01T10:40:06.226Z,1015.75
2022-11-01T10:41:01.215Z,1015.71
2022-11-01T10:42:01.083Z,1015.69
2022-11-01T10:43:01.102Z,1015.67
2022-11-01T10:44:01.335Z,1015.71
2022-11-01T10:45:01.119Z,1015.72
2022-11-01T10:46:01.192Z,1015.68
2022-11-01T10:47:01.154Z,1015.71
2022-11-01T10:48:01.530Z,1015.62
2022-11-01T10:49:01.483Z,1015.64
2022-11-01T10:50:06.485Z,1015.69
2022-11-01T10:51:02.142Z,1015.63
2022-11-01T10:52:02.260Z,1015.66
2022-11-01T10:53:01.159Z,1015.68
2022-11-01T10:54:00.640Z,1015.62
2022-11-01T10:55:00.341Z,1015.71
2022-11-01T10:56:00.028Z,1015.69
2022-11-01T10:57:00.400Z,1015.74
2022-11-01T10:58:00.414Z,1015.7
2022-11-01T10:59:00.285Z,1015.75
2022-11-01T10:59:59.845Z,1015.76
2022-11-01T11:01:02.363Z,1015.82
2022-11-01T11:02:01.217Z,1015.77
2022-11-01T11:03:01.083Z,1015.78
2022-11-01T11:04:01.125Z,1015.78
2022-11-01T11:05:01.459Z,1015.83
2022-11-01T11:06:02.571Z,1015.87
2022-11-01T11:07:00.732Z,1015.91
2022-11-01T11:08:01.096Z,1015.87
2022-11-01T11:09:02.191Z,1015.89
2022-11-01T11:11:04.342Z,1015.84
2022-11-01T11:12:01.886Z,1015.89
2022-11-01T11:13:02.475Z,1015.86
2022-11-01T11:14:01.346Z,1015.78
2022-11-01T11:15:02.024Z,1015.78
2022-11-01T11:16:01.406Z,1015.73
2022-11-01T11:17:01.599Z,1015.74
2022-11-01T11:18:01.239Z,1015.72
2022-11-01T11:19:01.121Z,1015.73
2022-11-01T11:20:01.142Z,1015.7
2022-11-01T11:21:01.131Z,1015.72
2022-11-01T11:22:00.803Z,1015.65
2022-11-01T11:23:00.891Z,1015.7
2022-11-01T11:24:01.164Z,1015.65
2022-11-01T11:25:01.359Z,1015.66
2022-11-01T11:26:02.109Z,1015.63
2022-11-01T11:27:00.794Z,1015.64
2022-11-01T11:28:01.013Z,1015.69
2022-11-01T11:29:01.997Z,1015.73
2022-11-01T11:30:01.053Z,1015.72
2022-11-01T11:31:01.048Z,1015.74
2022-11-01T11:32:01.120Z,1015.78
2022-11-01T11:33:01.123Z,1015.74
2022-11-01T11:34:00.834Z,1015.68
2022-11-01T11:35:00.382Z,1015.69
2022-11-01T11:36:00.057Z,1015.66
2022-11-01T11:37:03.294Z,1015.7
2022-11-01T11:38:01.797Z,1015.73
2022-11-01T11:39:01.262Z,1015.76
2022-11-01T11:40:01.050Z,1015.74
2022-11-01T11:41:01.386Z,1015.79
2022-11-01T11:42:06.666Z,1015.82
2022-11-01T11:43:01.149Z,1015.83
2022-11-01T11:44:01.067Z,1015.83
2022-11-01T11:45:01.078Z,1015.85
2022-11-01T11:46:01.750Z,1015.79
2022-11-01T11:47:09.085Z,1015.79
2022-11-01T11:48:01.766Z,1015.89
2022-11-01T11:49:00.855Z,1015.79
2022-11-01T11:50:01.182Z,1015.82
2022-11-01T11:51:01.368Z,1015.81
2022-11-01T11:52:12.416Z,1015.81
2022-11-01T11:53:02.158Z,1015.81
2022-11-01T11:54:02.116Z,1015.8
2022-11-01T11:55:01.145Z,1015.82
2022-11-01T11:56:01.236Z,1015.84
2022-11-01T11:57:14.430Z,1015.88
2022-11-01T11:58:01.499Z,1015.9
2022-11-01T11:59:04.712Z,1015.92
2022-11-01T12:00:01.829Z,1015.92
2022-11-01T12:01:01.768Z,1015.81
2022-11-01T12:02:17.243Z,1015.82
2022-11-01T12:03:01.689Z,1015.82
2022-11-01T12:04:01.991Z,1015.81
2022-11-01T12:05:01.267Z,1015.83
2022-11-01T12:06:01.100Z,1015.81
2022-11-01T12:07:01.111Z,1015.76
2022-11-01T12:08:01.168Z,1015.85
2022-11-01T12:09:01.267Z,1015.76
2022-11-01T12:10:01.262Z,1015.75
2022-11-01T12:11:01.240Z,1015.74
2022-11-01T12:12:01.217Z,1015.72